Time;durP1;ratioP1;P1;durP2;ratioP2;P2;SDS_P1;SDS_P2;PMS_P1;PMS_P2;Temp;Humidity;BMP_temperature;BMP_pressure;BME280_temperature;BME280_humidity;BME280_pressure;Samples;Min_cycle;Max_cycle;Signal;HPM_P1;HPM_P2
2022/04/08 00:01:43;;;;;;;7.53;4.00;;;9.10;99.90;;;;;;4979316;28;20211;-76
2022/04/08 00:04:10;;;;;;;8.23;4.43;;;9.10;99.90;;;;;;4979471;28;20228;-75
2022/04/08 00:06:37;;;;;;;8.00;3.70;;;9.00;99.90;;;;;;4978538;28;20692;-76
2022/04/08 00:09:04;;;;;;;5.03;3.50;;;9.10;99.90;;;;;;4982673;28;20217;-76
2022/04/08 00:11:31;;;;;;;6.23;3.60;;;9.10;99.90;;;;;;4977733;28;20206;-75
2022/04/08 00:13:58;;;;;;;3.70;3.40;;;9.10;99.90;;;;;;4979510;28;20580;-75
2022/04/08 00:16:26;;;;;;;6.40;3.57;;;9.00;99.90;;;;;;4981169;28;20221;-76
2022/04/08 00:18:53;;;;;;;3.87;3.13;;;9.00;99.90;;;;;;4975973;28;20220;-76
2022/04/08 00:21:20;;;;;;;7.07;3.87;;;9.00;99.90;;;;;;4980768;28;20191;-76
2022/04/08 00:23:47;;;;;;;5.40;3.40;;;9.00;99.90;;;;;;4986345;28;20196;-76
2022/04/08 00:26:14;;;;;;;7.60;4.00;;;8.90;99.90;;;;;;4979077;28;20678;-76
2022/04/08 00:28:41;;;;;;;7.30;3.70;;;8.90;99.90;;;;;;4986382;28;20205;-76
2022/04/08 00:31:08;;;;;;;3.37;3.10;;;8.90;99.90;;;;;;4982752;28;20292;-77
2022/04/08 00:33:36;;;;;;;6.73;3.20;;;8.90;99.90;;;;;;4986607;28;20203;-78
2022/04/08 00:36:03;;;;;;;4.10;3.20;;;8.90;99.90;;;;;;4983270;28;20201;-78
2022/04/08 00:38:32;;;;;;;5.40;3.30;;;8.90;99.90;;;;;;4986218;28;20232;-78
2022/04/08 00:40:59;;;;;;;4.63;3.20;;;8.90;99.90;;;;;;4983904;28;20268;-78
2022/04/08 00:43:34;;;;;;;3.53;2.70;;;8.80;99.90;;;;;;4980857;28;20803;-78
2022/04/08 00:46:01;;;;;;;6.27;3.00;;;8.80;99.90;;;;;;4981516;28;20202;-78
2022/04/08 00:48:28;;;;;;;6.20;2.73;;;8.80;99.90;;;;;;4983894;28;20198;-77
2022/04/08 00:50:56;;;;;;;3.53;2.60;;;8.80;99.90;;;;;;4982914;28;20295;-77
2022/04/08 00:53:24;;;;;;;3.83;2.80;;;8.80;99.90;;;;;;4984972;28;20288;-78
2022/04/08 00:55:51;;;;;;;3.50;2.73;;;8.90;99.90;;;;;;4982982;28;20208;-78
2022/04/08 00:58:19;;;;;;;4.60;2.90;;;8.90;99.90;;;;;;4986070;28;20227;-78
2022/04/08 01:00:46;;;;;;;2.97;2.50;;;8.90;99.90;;;;;;4982217;28;20230;-77
2022/04/08 01:03:13;;;;;;;3.07;2.30;;;8.80;99.90;;;;;;4993887;28;20206;-78
2022/04/08 01:05:41;;;;;;;6.87;3.10;;;8.80;99.90;;;;;;4983869;28;20680;-77
2022/04/08 01:08:12;;;;;;;8.43;2.80;;;8.80;99.90;;;;;;4984136;28;20222;-79
2022/04/08 01:10:40;;;;;;;4.23;2.50;;;8.80;99.90;;;;;;4981549;28;20690;-79
2022/04/08 01:13:07;;;;;;;3.70;3.10;;;8.80;99.90;;;;;;4986957;28;20194;-79
2022/04/08 01:15:35;;;;;;;6.43;3.40;;;8.80;99.90;;;;;;4978253;28;20221;-79
2022/04/08 01:18:02;;;;;;;4.63;3.60;;;8.80;99.90;;;;;;4985722;28;20227;-78
2022/04/08 01:20:29;;;;;;;5.30;3.23;;;8.80;99.90;;;;;;4980368;28;20222;-79
2022/04/08 01:22:56;;;;;;;5.60;3.40;;;8.80;99.90;;;;;;4981889;28;20289;-79
2022/04/08 01:25:24;;;;;;;6.33;3.30;;;8.80;99.90;;;;;;4983298;28;20206;-78
2022/04/08 01:27:51;;;;;;;4.07;2.77;;;8.80;99.90;;;;;;4982505;28;20198;-78
2022/04/08 01:30:18;;;;;;;5.27;3.00;;;8.80;99.90;;;;;;4985175;28;20227;-78
2022/04/08 01:32:45;;;;;;;3.40;2.53;;;8.80;99.90;;;;;;4989954;28;20204;-78
2022/04/08 01:35:13;;;;;;;4.73;2.70;;;8.80;99.90;;;;;;4984186;28;20194;-77
2022/04/08 01:37:40;;;;;;;4.83;3.90;;;8.80;99.90;;;;;;4984083;28;20202;-76
2022/04/08 01:40:08;;;;;;;7.97;3.63;;;8.70;99.90;;;;;;4981851;28;20228;-76
2022/04/08 01:42:36;;;;;;;5.23;3.80;;;8.80;99.90;;;;;;4984027;28;20206;-77
2022/04/08 01:45:04;;;;;;;4.57;3.87;;;8.70;99.90;;;;;;4986603;28;20701;-77
2022/04/08 01:47:31;;;;;;;5.10;3.80;;;8.70;99.90;;;;;;4978273;28;20209;-78
2022/04/08 01:49:58;;;;;;;4.23;3.63;;;8.70;99.90;;;;;;4985151;28;20219;-78
2022/04/08 01:52:25;;;;;;;4.20;3.80;;;8.70;99.90;;;;;;4985371;28;20197;-79
2022/04/08 01:54:52;;;;;;;4.03;3.70;;;8.70;99.90;;;;;;4993664;28;20211;-80
2022/04/08 01:57:22;;;;;;;4.30;3.90;;;8.70;99.90;;;;;;4985422;28;20212;-79
2022/04/08 01:59:52;;;;;;;4.20;3.57;;;8.70;99.90;;;;;;4985042;28;20282;-78
2022/04/08 02:02:19;;;;;;;5.83;4.17;;;8.70;99.90;;;;;;4980042;28;20260;-79
2022/04/08 02:04:47;;;;;;;6.83;3.70;;;8.70;99.90;;;;;;4982597;28;20745;-78
2022/04/08 02:07:14;;;;;;;4.30;3.67;;;8.70;99.90;;;;;;4982130;28;20647;-78
2022/04/08 02:09:41;;;;;;;4.17;3.77;;;8.70;99.90;;;;;;4995375;28;20228;-80
2022/04/08 02:12:08;;;;;;;4.57;3.93;;;8.70;99.90;;;;;;4978351;28;20300;-79
2022/04/08 02:14:35;;;;;;;4.63;3.90;;;8.70;99.90;;;;;;4984981;28;20227;-80
2022/04/08 02:17:03;;;;;;;4.03;3.67;;;8.70;99.90;;;;;;4978970;28;20211;-79
2022/04/08 02:19:30;;;;;;;5.03;4.13;;;8.70;99.90;;;;;;4983992;28;20225;-79
2022/04/08 02:21:58;;;;;;;5.00;4.00;;;8.70;99.90;;;;;;4982179;28;20200;-78
2022/04/08 02:24:25;;;;;;;4.67;3.80;;;8.70;99.90;;;;;;4983369;28;20267;-78
2022/04/08 02:26:52;;;;;;;4.57;3.90;;;8.60;99.90;;;;;;4981192;28;20785;-79
2022/04/08 02:29:19;;;;;;;5.43;4.00;;;8.60;99.90;;;;;;4982899;28;20609;-78
2022/04/08 02:31:47;;;;;;;6.10;3.90;;;8.60;99.90;;;;;;4985594;28;20201;-80
2022/04/08 02:34:15;;;;;;;4.00;3.63;;;8.60;99.90;;;;;;4975575;28;20212;-79
2022/04/08 02:36:42;;;;;;;5.67;4.10;;;8.60;99.90;;;;;;4973588;28;20208;-78
2022/04/08 02:39:10;;;;;;;7.37;3.43;;;8.60;99.90;;;;;;4973589;28;20238;-78
2022/04/08 02:41:37;;;;;;;3.83;2.90;;;8.60;99.90;;;;;;4988187;28;20718;-81
2022/04/08 02:44:04;;;;;;;7.83;3.23;;;8.60;99.90;;;;;;4997769;28;20212;-79
2022/04/08 02:46:31;;;;;;;3.83;3.20;;;8.60;99.90;;;;;;4992334;28;20216;-79
2022/04/08 02:48:58;;;;;;;3.30;3.10;;;8.60;99.90;;;;;;4990361;28;20221;-80
2022/04/08 02:51:28;;;;;;;5.37;3.10;;;8.60;99.90;;;;;;4984011;28;20215;-81
2022/04/08 02:53:55;;;;;;;4.47;3.00;;;8.60;99.90;;;;;;4969171;28;20678;-82
2022/04/08 02:56:22;;;;;;;8.70;3.30;;;8.50;99.90;;;;;;4972738;28;20311;-81
2022/04/08 02:58:49;;;;;;;3.93;3.20;;;8.50;99.90;;;;;;4978620;28;20263;-82
2022/04/08 03:01:17;;;;;;;3.83;3.53;;;8.50;99.90;;;;;;4969951;28;20201;-81
2022/04/08 03:03:43;;;;;;;4.40;3.10;;;8.50;99.90;;;;;;4972637;28;20625;-82
2022/04/08 03:06:10;;;;;;;3.40;3.10;;;8.50;99.90;;;;;;4985000;28;20223;-82
2022/04/08 03:08:39;;;;;;;4.83;3.40;;;8.40;99.90;;;;;;4974709;28;20726;-83
2022/04/08 03:11:06;;;;;;;4.03;3.53;;;8.40;99.90;;;;;;4972846;28;20206;-82
2022/04/08 03:13:33;;;;;;;4.17;3.67;;;8.40;99.90;;;;;;4972380;28;20233;-81
2022/04/08 03:16:00;;;;;;;3.90;3.60;;;8.40;99.90;;;;;;4979798;28;20224;-81
2022/04/08 03:18:27;;;;;;;4.40;4.00;;;8.40;99.90;;;;;;4977655;28;20226;-79
2022/04/08 03:20:55;;;;;;;3.10;2.90;;;8.40;99.90;;;;;;4971500;28;20216;-81
2022/04/08 03:23:22;;;;;;;5.03;3.07;;;8.40;99.90;;;;;;4980475;28;20588;-82
2022/04/08 03:25:50;;;;;;;3.70;3.30;;;8.40;99.90;;;;;;4980258;28;20197;-82
2022/04/08 03:28:17;;;;;;;7.93;2.80;;;8.40;99.90;;;;;;4986883;28;20668;-79
2022/04/08 03:30:45;;;;;;;2.60;2.40;;;8.40;99.90;;;;;;4970392;28;20216;-80
2022/04/08 03:33:12;;;;;;;4.13;2.90;;;8.40;99.90;;;;;;4990235;28;20199;-79
2022/04/08 03:35:39;;;;;;;6.13;5.73;;;8.40;99.90;;;;;;4985233;28;20216;-81
2022/04/08 03:38:06;;;;;;;5.50;5.10;;;8.40;99.90;;;;;;4988601;28;20721;-80
2022/04/08 03:40:35;;;;;;;5.73;5.33;;;8.40;99.90;;;;;;4989941;28;20326;-79
2022/04/08 03:43:03;;;;;;;6.00;5.50;;;8.30;99.90;;;;;;4991036;28;20296;-81
2022/04/08 03:45:30;;;;;;;6.03;5.63;;;8.40;99.90;;;;;;4990934;28;20316;-80
2022/04/08 03:47:57;;;;;;;7.50;6.80;;;8.30;99.90;;;;;;4988322;28;20290;-81
2022/04/08 03:50:24;;;;;;;6.90;6.50;;;8.30;99.90;;;;;;4991006;28;20220;-81
2022/04/08 03:52:51;;;;;;;7.30;6.73;;;8.30;99.90;;;;;;4984557;28;20195;-81
2022/04/08 03:55:19;;;;;;;7.40;6.90;;;8.20;99.90;;;;;;4990642;28;20232;-81
2022/04/08 03:57:46;;;;;;;7.33;6.83;;;8.20;99.90;;;;;;4986675;28;20213;-81
2022/04/08 04:00:16;;;;;;;7.50;7.10;;;8.10;99.90;;;;;;4990620;28;20223;-81
2022/04/08 04:02:43;;;;;;;4.13;2.90;;;8.10;99.90;;;;;;4968745;28;20287;-81
2022/04/08 04:05:11;;;;;;;3.40;3.10;;;8.10;99.90;;;;;;4989714;28;20250;-82
2022/04/08 04:07:39;;;;;;;3.50;3.20;;;8.10;99.90;;;;;;4984192;28;20203;-81
2022/04/08 04:10:07;;;;;;;3.90;3.60;;;8.00;99.90;;;;;;4989546;28;20219;-80
2022/04/08 04:12:34;;;;;;;5.27;3.60;;;8.10;99.90;;;;;;4988639;28;20290;-82
2022/04/08 04:15:03;;;;;;;3.90;3.70;;;8.10;99.90;;;;;;4991416;28;20200;-80
2022/04/08 04:17:32;;;;;;;3.80;3.50;;;8.10;99.90;;;;;;4988792;28;20269;-79
2022/04/08 04:19:59;;;;;;;4.80;4.03;;;8.10;99.90;;;;;;4978959;28;20224;-77
2022/04/08 04:22:26;;;;;;;5.37;3.90;;;8.10;99.90;;;;;;4980919;28;20243;-77
2022/04/08 04:24:53;;;;;;;4.70;3.90;;;8.10;99.90;;;;;;4980039;28;20195;-78
2022/04/08 04:27:20;;;;;;;4.23;3.90;;;8.00;99.90;;;;;;4982979;28;20303;-78
2022/04/08 04:29:47;;;;;;;4.20;3.63;;;8.10;99.90;;;;;;4983676;28;20224;-78
2022/04/08 04:32:14;;;;;;;4.17;3.67;;;8.10;99.90;;;;;;4975462;28;20264;-77
2022/04/08 04:34:42;;;;;;;3.53;3.23;;;8.10;99.90;;;;;;4999439;28;20204;-79
2022/04/08 04:37:09;;;;;;;4.93;3.80;;;8.10;99.90;;;;;;4980058;28;20219;-79
2022/04/08 04:39:36;;;;;;;2.90;2.10;;;8.20;99.90;;;;;;4972568;28;20692;-79
2022/04/08 04:42:07;;;;;;;2.47;2.27;;;8.20;99.90;;;;;;4980322;28;20201;-79
2022/04/08 04:44:34;;;;;;;2.60;2.50;;;8.20;99.90;;;;;;4983796;28;20201;-78
2022/04/08 04:47:01;;;;;;;3.13;2.23;;;8.20;99.90;;;;;;4983050;28;20251;-80
2022/04/08 04:49:28;;;;;;;3.37;2.57;;;8.20;99.90;;;;;;4976926;28;20253;-79
2022/04/08 04:51:57;;;;;;;2.63;2.40;;;8.20;99.90;;;;;;4979126;28;20244;-79
2022/04/08 04:54:24;;;;;;;5.60;2.53;;;8.20;99.90;;;;;;4981449;28;20244;-79
2022/04/08 04:56:51;;;;;;;6.07;2.70;;;8.20;99.90;;;;;;4981065;28;20281;-77
2022/04/08 04:59:18;;;;;;;2.47;2.27;;;8.20;99.90;;;;;;4982008;28;20687;-77
2022/04/08 05:01:45;;;;;;;2.83;2.47;;;8.20;99.90;;;;;;4987377;28;20200;-80
2022/04/08 05:04:12;;;;;;;3.33;2.50;;;8.20;99.90;;;;;;4983565;28;20207;-77
2022/04/08 05:06:39;;;;;;;4.90;2.80;;;8.20;99.90;;;;;;4985654;28;20713;-77
2022/04/08 05:09:07;;;;;;;3.07;2.60;;;8.20;99.90;;;;;;4979629;28;20339;-81
2022/04/08 05:11:34;;;;;;;4.33;2.90;;;8.20;99.90;;;;;;4985288;28;20295;-78
2022/04/08 05:14:01;;;;;;;3.03;2.70;;;8.20;99.90;;;;;;4982912;28;20278;-79
2022/04/08 05:16:29;;;;;;;4.97;3.23;;;8.20;99.90;;;;;;4985443;28;20608;-80
2022/04/08 05:18:56;;;;;;;5.47;2.83;;;8.20;99.90;;;;;;4983983;28;20238;-80
2022/04/08 05:21:23;;;;;;;5.33;2.67;;;8.20;99.90;;;;;;4995862;28;20278;-82
2022/04/08 05:23:50;;;;;;;3.03;2.73;;;8.20;99.90;;;;;;4998434;28;20282;-84
2022/04/08 05:26:18;;;;;;;5.03;2.77;;;8.20;99.90;;;;;;4990364;28;20201;-83
2022/04/08 05:28:46;;;;;;;6.13;3.07;;;8.20;99.90;;;;;;4994081;28;20299;-83
2022/04/08 05:31:13;;;;;;;6.07;3.20;;;8.20;99.90;;;;;;4989855;28;20192;-82
2022/04/08 05:33:40;;;;;;;4.07;2.90;;;8.20;99.90;;;;;;4993330;28;20255;-83
2022/04/08 05:36:07;;;;;;;5.83;5.33;;;8.20;99.90;;;;;;4991179;28;20241;-84
2022/04/08 05:38:34;;;;;;;5.80;5.37;;;8.20;99.90;;;;;;4987522;28;20233;-83
2022/04/08 05:41:01;;;;;;;6.00;5.40;;;8.20;99.90;;;;;;4985355;28;20231;-80
2022/04/08 05:43:29;;;;;;;5.93;5.43;;;8.20;99.90;;;;;;4988628;28;20292;-82
2022/04/08 05:45:56;;;;;;;5.80;5.30;;;8.20;99.90;;;;;;4989682;28;20690;-79
2022/04/08 05:48:24;;;;;;;6.77;5.30;;;8.20;99.90;;;;;;4980797;28;20304;-80
2022/04/08 05:50:51;;;;;;;4.90;4.60;;;8.20;99.90;;;;;;4985503;28;20660;-79
2022/04/08 05:53:18;;;;;;;6.57;5.20;;;8.20;99.90;;;;;;4990844;28;20205;-78
2022/04/08 05:55:45;;;;;;;5.00;4.63;;;8.20;99.90;;;;;;4978808;28;20248;-79
2022/04/08 05:58:12;;;;;;;9.23;5.20;;;8.10;99.90;;;;;;4980442;28;20685;-79
2022/04/08 06:00:41;;;;;;;4.93;4.53;;;8.10;99.90;;;;;;4983590;28;20673;-79
2022/04/08 06:03:08;;;;;;;5.43;4.70;;;8.20;99.90;;;;;;4984720;28;20588;-79
2022/04/08 06:05:35;;;;;;;4.90;4.40;;;8.20;99.90;;;;;;4984806;28;20211;-78
2022/04/08 06:08:02;;;;;;;4.27;3.70;;;8.20;99.90;;;;;;4989987;28;20732;-79
2022/04/08 06:10:29;;;;;;;3.93;3.40;;;8.20;99.90;;;;;;4982334;28;20213;-79
2022/04/08 06:12:56;;;;;;;3.53;2.80;;;8.20;99.90;;;;;;4988096;28;20220;-79
2022/04/08 06:15:24;;;;;;;5.10;2.60;;;8.20;99.90;;;;;;4999628;28;20210;-79
2022/04/08 06:17:54;;;;;;;5.83;2.90;;;8.20;99.90;;;;;;4986549;28;20215;-79
2022/04/08 06:20:21;;;;;;;3.17;2.63;;;8.20;99.90;;;;;;4977212;28;20585;-79
2022/04/08 06:22:49;;;;;;;2.50;2.30;;;8.20;99.90;;;;;;4995302;28;20212;-80
2022/04/08 06:25:18;;;;;;;3.47;2.43;;;8.20;99.90;;;;;;4980238;28;20201;-79
2022/04/08 06:27:45;;;;;;;2.50;2.30;;;8.20;99.90;;;;;;4981551;28;20216;-80
2022/04/08 06:30:14;;;;;;;3.70;2.67;;;8.20;99.90;;;;;;4981348;28;20303;-79
2022/04/08 06:32:43;;;;;;;3.27;2.40;;;8.20;99.90;;;;;;4981155;28;20292;-78
2022/04/08 06:35:12;;;;;;;3.10;2.80;;;8.20;99.90;;;;;;4984724;28;20435;-79
2022/04/08 06:37:39;;;;;;;4.47;2.67;;;8.10;99.90;;;;;;4972235;28;20197;-79
2022/04/08 06:40:10;;;;;;;2.90;2.60;;;8.10;99.90;;;;;;4982842;28;20224;-80
2022/04/08 06:42:38;;;;;;;2.70;2.27;;;8.00;99.90;;;;;;4988519;28;20205;-79
2022/04/08 06:45:07;;;;;;;5.23;2.80;;;7.90;99.90;;;;;;4987027;28;20207;-79
2022/04/08 06:47:34;;;;;;;2.50;2.20;;;7.90;99.90;;;;;;4989002;28;20211;-79
2022/04/08 06:50:01;;;;;;;2.43;2.23;;;7.80;99.90;;;;;;4985606;28;20219;-79
2022/04/08 06:52:29;;;;;;;2.50;2.30;;;7.70;99.90;;;;;;4977207;28;20665;-80
2022/04/08 06:54:56;;;;;;;2.53;2.10;;;7.60;99.90;;;;;;4980550;28;20706;-79
2022/04/08 06:57:23;;;;;;;2.40;2.20;;;7.60;99.90;;;;;;4982249;28;20194;-79
2022/04/08 06:59:50;;;;;;;2.00;1.90;;;7.60;99.90;;;;;;4971214;28;20228;-79
2022/04/08 07:02:17;;;;;;;2.30;2.00;;;7.60;99.90;;;;;;4979375;28;20224;-80
2022/04/08 07:04:44;;;;;;;3.47;2.40;;;7.60;99.90;;;;;;4979638;28;20685;-79
2022/04/08 07:07:11;;;;;;;2.40;2.20;;;7.60;99.90;;;;;;4976178;28;20300;-80
2022/04/08 07:09:39;;;;;;;2.60;2.20;;;7.60;99.90;;;;;;4990230;28;20230;-79
2022/04/08 07:12:06;;;;;;;2.37;1.97;;;7.60;99.90;;;;;;4984491;28;20438;-79
2022/04/08 07:14:33;;;;;;;4.67;2.23;;;7.60;99.90;;;;;;4985264;28;20222;-80
2022/04/08 07:17:00;;;;;;;2.30;2.10;;;7.60;99.90;;;;;;4979612;28;20226;-79
2022/04/08 07:19:27;;;;;;;2.33;2.13;;;7.70;99.90;;;;;;4983143;28;20227;-80
2022/04/08 07:21:54;;;;;;;3.23;2.27;;;7.70;99.90;;;;;;4985821;28;20205;-79
2022/04/08 07:24:21;;;;;;;2.37;1.90;;;7.80;99.90;;;;;;4977349;28;20210;-79
2022/04/08 07:26:50;;;;;;;3.20;2.13;;;7.90;99.90;;;;;;4979773;28;20212;-79
2022/04/08 07:29:17;;;;;;;4.00;2.63;;;8.00;99.90;;;;;;4988653;28;20247;-79
2022/04/08 07:31:44;;;;;;;2.23;2.00;;;8.10;99.90;;;;;;4986598;28;20241;-79
2022/04/08 07:34:11;;;;;;;3.97;2.50;;;8.20;99.90;;;;;;4978012;28;20201;-79
2022/04/08 07:36:38;;;;;;;3.37;2.47;;;8.30;99.90;;;;;;4991406;28;20623;-78
2022/04/08 07:39:05;;;;;;;5.03;2.67;;;8.30;99.90;;;;;;4983360;28;20307;-79
2022/04/08 07:41:32;;;;;;;3.70;3.40;;;8.40;99.90;;;;;;4976952;28;20244;-78
2022/04/08 07:44:01;;;;;;;4.00;3.70;;;8.50;99.90;;;;;;4978074;28;20201;-79
2022/04/08 07:46:28;;;;;;;3.40;3.10;;;8.50;99.90;;;;;;4980198;28;20201;-79
2022/04/08 07:48:54;;;;;;;4.20;3.80;;;8.50;99.90;;;;;;4980257;28;20213;-79
2022/04/08 07:51:21;;;;;;;3.90;3.70;;;8.60;99.90;;;;;;4981039;28;20197;-79
2022/04/08 07:53:48;;;;;;;5.03;4.53;;;8.60;99.90;;;;;;4978553;28;20585;-79
2022/04/08 07:56:15;;;;;;;3.50;3.20;;;8.60;99.90;;;;;;4979136;28;20561;-79
2022/04/08 07:58:45;;;;;;;7.27;4.53;;;8.60;99.90;;;;;;4986397;28;20239;-79
2022/04/08 08:01:14;;;;;;;4.53;4.23;;;8.60;99.90;;;;;;4976171;28;20687;-79
2022/04/08 08:03:42;;;;;;;5.53;4.57;;;8.70;99.90;;;;;;4997423;28;20220;-79
2022/04/08 08:06:11;;;;;;;5.00;4.60;;;8.70;99.90;;;;;;4979640;28;20212;-79
2022/04/08 08:08:38;;;;;;;5.70;4.83;;;8.80;99.90;;;;;;4992570;28;20205;-79
2022/04/08 08:11:11;;;;;;;4.40;4.00;;;8.90;99.90;;;;;;4977657;28;20194;-80
2022/04/08 08:13:38;;;;;;;4.70;4.10;;;8.80;99.90;;;;;;4988607;28;20206;-79
2022/04/08 08:16:07;;;;;;;4.20;3.77;;;8.80;99.90;;;;;;4978571;28;20232;-79
2022/04/08 08:18:36;;;;;;;4.27;3.90;;;8.80;99.90;;;;;;4993558;28;20647;-79
2022/04/08 08:21:03;;;;;;;4.10;3.70;;;8.80;99.90;;;;;;4978318;28;20229;-79
2022/04/08 08:23:30;;;;;;;6.77;6.37;;;8.80;99.90;;;;;;4981009;28;20248;-79
2022/04/08 08:25:57;;;;;;;7.20;6.60;;;8.80;99.90;;;;;;4979715;28;20285;-80
2022/04/08 08:28:24;;;;;;;6.80;6.30;;;8.90;99.90;;;;;;4982246;28;20212;-79
2022/04/08 08:30:51;;;;;;;7.00;6.60;;;8.90;99.90;;;;;;4983222;28;20658;-79
2022/04/08 08:33:18;;;;;;;4.53;4.13;;;9.00;99.90;;;;;;4982067;28;20650;-79
2022/04/08 08:35:47;;;;;;;5.40;5.00;;;9.20;99.90;;;;;;4987521;28;20634;-79
2022/04/08 08:38:15;;;;;;;5.37;5.07;;;9.30;99.90;;;;;;4978795;28;20355;-79
2022/04/08 08:40:44;;;;;;;5.17;3.97;;;9.30;99.90;;;;;;4981724;28;20217;-80
2022/04/08 08:43:17;;;;;;;2.80;2.53;;;9.30;99.90;;;;;;4979676;28;20248;-79
2022/04/08 08:45:46;;;;;;;4.53;4.33;;;9.20;99.90;;;;;;4983220;28;20208;-79
2022/04/08 08:48:15;;;;;;;2.93;2.30;;;9.30;99.90;;;;;;4985424;28;20201;-80
2022/04/08 08:50:48;;;;;;;3.57;3.37;;;9.50;99.90;;;;;;4980856;28;20217;-79
2022/04/08 08:53:18;;;;;;;2.60;2.50;;;9.60;99.90;;;;;;4992960;28;20201;-79
2022/04/08 08:55:45;;;;;;;3.73;3.43;;;9.50;99.90;;;;;;4982601;28;20204;-79
2022/04/08 08:58:12;;;;;;;3.00;2.90;;;9.60;99.90;;;;;;4983070;28;20194;-79
2022/04/08 09:00:39;;;;;;;3.10;3.00;;;9.80;99.90;;;;;;5002152;28;20307;-79
2022/04/08 09:03:07;;;;;;;2.93;2.80;;;9.90;99.90;;;;;;4983046;28;20202;-80
2022/04/08 09:05:42;;;;;;;3.00;2.80;;;9.90;99.90;;;;;;4987348;28;20206;-79
2022/04/08 09:08:12;;;;;;;2.90;2.80;;;9.90;99.90;;;;;;4987081;28;20283;-79
2022/04/08 09:10:44;;;;;;;2.20;2.10;;;10.10;99.90;;;;;;4990175;28;20218;-79
2022/04/08 09:13:11;;;;;;;2.97;2.80;;;10.30;99.90;;;;;;4991613;28;20224;-79
2022/04/08 09:15:40;;;;;;;2.17;2.07;;;10.40;99.90;;;;;;4998780;28;20206;-79
2022/04/08 09:18:12;;;;;;;1.90;1.80;;;10.50;99.90;;;;;;4990449;28;20205;-79
2022/04/08 09:20:40;;;;;;;2.97;2.77;;;10.60;99.90;;;;;;4990529;28;20296;-79
2022/04/08 09:23:09;;;;;;;2.60;2.50;;;10.70;99.90;;;;;;4982467;28;20458;-80
2022/04/08 09:25:37;;;;;;;3.00;2.90;;;10.70;99.90;;;;;;4985910;28;20566;-79
2022/04/08 09:28:08;;;;;;;3.93;3.73;;;10.60;99.90;;;;;;4981513;28;20213;-79
2022/04/08 09:30:35;;;;;;;5.40;5.00;;;10.60;99.90;;;;;;4984632;28;20219;-79
2022/04/08 09:33:11;;;;;;;4.70;4.40;;;10.40;99.90;;;;;;4982609;28;20675;-79
2022/04/08 09:35:40;;;;;;;4.33;4.13;;;10.70;99.90;;;;;;4993661;28;20200;-78
2022/04/08 09:38:07;;;;;;;3.50;3.40;;;10.80;99.90;;;;;;4979287;28;20197;-79
2022/04/08 09:40:40;;;;;;;3.90;3.60;;;10.80;99.90;;;;;;4978242;28;20211;-80
2022/04/08 09:43:08;;;;;;;1.90;1.80;;;10.70;99.90;;;;;;4985808;28;20203;-80
2022/04/08 09:45:38;;;;;;;2.00;1.90;;;10.60;99.90;;;;;;4981921;28;20200;-80
2022/04/08 09:48:06;;;;;;;1.93;1.83;;;10.50;99.90;;;;;;4982063;28;20226;-80
2022/04/08 09:50:35;;;;;;;3.03;2.10;;;10.40;99.90;;;;;;4984672;28;20223;-79
2022/04/08 09:53:04;;;;;;;2.10;2.00;;;10.30;99.90;;;;;;4981060;28;20300;-79
2022/04/08 09:55:31;;;;;;;2.00;1.90;;;10.40;99.90;;;;;;4983751;28;20207;-79
2022/04/08 09:58:04;;;;;;;2.10;2.00;;;10.50;99.90;;;;;;4982461;28;20674;-79
2022/04/08 10:00:32;;;;;;;4.93;4.73;;;10.30;99.90;;;;;;4978618;28;21114;-79
2022/04/08 10:03:00;;;;;;;5.40;5.10;;;10.10;99.90;;;;;;4981048;28;20202;-80
2022/04/08 10:05:27;;;;;;;4.80;4.50;;;10.10;99.90;;;;;;4983359;28;20198;-79
2022/04/08 10:07:56;;;;;;;5.20;4.90;;;9.90;99.90;;;;;;4981668;28;20292;-80
2022/04/08 10:10:27;;;;;;;5.30;5.00;;;9.60;99.90;;;;;;4982006;28;20312;-79
2022/04/08 10:13:30;;;;;;;2.93;2.13;;;9.50;99.90;;;;;;4981510;28;20664;-79
2022/04/08 10:16:05;;;;;;;4.90;4.50;;;9.30;99.90;;;;;;4980535;28;20209;-78
2022/04/08 10:18:37;;;;;;;3.30;3.03;;;9.20;99.90;;;;;;4984411;28;20201;-79
2022/04/08 10:21:04;;;;;;;4.47;4.20;;;9.10;99.90;;;;;;4987335;28;20221;-79
2022/04/08 10:23:36;;;;;;;5.40;5.10;;;9.00;99.90;;;;;;4978763;28;20299;-80
2022/04/08 10:26:05;;;;;;;3.80;3.60;;;9.00;99.90;;;;;;4996851;28;20198;-80
2022/04/08 10:28:37;;;;;;;3.90;3.70;;;9.00;99.90;;;;;;4983906;28;20208;-79
2022/04/08 10:31:16;;;;;;;4.50;4.20;;;9.00;99.90;;;;;;4991869;28;20650;-80
2022/04/08 10:33:48;;;;;;;4.37;4.07;;;9.10;99.90;;;;;;4983553;28;20202;-79
2022/04/08 10:36:15;;;;;;;4.40;4.00;;;9.10;99.90;;;;;;4973225;28;20205;-79
2022/04/08 10:38:42;;;;;;;5.50;5.10;;;9.10;99.90;;;;;;4983125;28;20197;-79
2022/04/08 10:41:10;;;;;;;5.00;4.70;;;9.10;99.90;;;;;;4986284;28;20678;-79
2022/04/08 10:43:47;;;;;;;4.97;4.57;;;9.10;99.90;;;;;;4983450;28;20575;-80
2022/04/08 10:46:14;;;;;;;6.50;5.90;;;9.00;99.90;;;;;;4987993;28;20201;-79
2022/04/08 10:48:41;;;;;;;5.97;5.47;;;8.90;99.90;;;;;;4982961;28;20297;-79
2022/04/08 10:51:12;;;;;;;6.53;6.13;;;8.90;99.90;;;;;;4989959;28;20197;-80
2022/04/08 10:53:41;;;;;;;7.63;7.03;;;8.70;99.90;;;;;;4988340;28;20209;-79
2022/04/08 10:56:10;;;;;;;4.97;4.70;;;8.50;99.90;;;;;;4981501;28;20209;-79
2022/04/08 10:58:42;;;;;;;5.60;5.20;;;8.60;99.90;;;;;;4979739;28;20683;-79
2022/04/08 11:01:22;;;;;;;3.83;3.63;;;8.60;99.90;;;;;;4984125;28;20658;-78
2022/04/08 11:03:56;;;;;;;4.50;4.20;;;8.60;99.90;;;;;;4975090;28;20237;-78
2022/04/08 11:06:25;;;;;;;5.03;4.60;;;8.70;99.90;;;;;;4978968;28;20643;-79
2022/04/08 11:08:52;;;;;;;5.20;4.80;;;8.70;99.90;;;;;;4980737;28;20224;-79
2022/04/08 11:11:28;;;;;;;5.30;4.90;;;8.80;99.90;;;;;;4981462;28;20252;-79
2022/04/08 11:13:56;;;;;;;8.27;7.70;;;8.80;99.90;;;;;;4977856;28;20197;-78
2022/04/08 11:16:28;;;;;;;7.60;7.10;;;8.90;99.90;;;;;;4981820;28;20208;-79
2022/04/08 11:18:55;;;;;;;9.00;8.50;;;8.80;99.90;;;;;;4978504;28;20609;-79
2022/04/08 11:21:23;;;;;;;8.27;7.87;;;8.60;99.90;;;;;;4998174;28;20226;-79
2022/04/08 11:23:58;;;;;;;5.37;5.07;;;8.70;99.90;;;;;;4981284;28;20638;-79
2022/04/08 11:26:25;;;;;;;4.83;4.53;;;8.70;99.90;;;;;;4979232;28;20203;-79
2022/04/08 11:28:52;;;;;;;8.03;7.57;;;8.80;99.90;;;;;;4997341;28;20754;-79
2022/04/08 11:31:20;;;;;;;6.90;6.50;;;8.80;99.90;;;;;;4981031;28;20193;-79
2022/04/08 11:33:48;;;;;;;7.40;7.00;;;8.90;99.90;;;;;;4977815;28;20210;-79
2022/04/08 11:36:21;;;;;;;7.60;7.10;;;8.90;99.90;;;;;;4995402;28;20204;-79
2022/04/08 11:38:48;;;;;;;7.43;7.00;;;8.80;99.90;;;;;;4978396;28;20231;-79
2022/04/08 11:41:20;;;;;;;7.93;7.30;;;8.70;99.90;;;;;;4989782;28;20321;-79
2022/04/08 11:43:48;;;;;;;7.33;6.60;;;8.70;99.90;;;;;;4984194;28;20670;-78
2022/04/08 11:46:16;;;;;;;4.60;3.90;;;8.60;99.90;;;;;;4979179;28;20208;-78
2022/04/08 11:48:44;;;;;;;3.80;3.50;;;8.70;99.90;;;;;;4982586;28;20612;-78
2022/04/08 11:51:12;;;;;;;5.63;5.23;;;8.70;99.90;;;;;;4979681;28;20252;-79
2022/04/08 11:53:44;;;;;;;5.67;5.27;;;8.70;99.90;;;;;;4982405;28;20232;-78
2022/04/08 11:56:12;;;;;;;6.60;6.13;;;8.80;99.90;;;;;;4982221;28;20217;-78
2022/04/08 11:58:39;;;;;;;5.23;4.83;;;8.70;99.90;;;;;;4984504;28;20557;-78
2022/04/08 12:01:09;;;;;;;4.53;4.23;;;8.70;99.90;;;;;;4975971;28;20669;-78
2022/04/08 12:03:39;;;;;;;7.47;7.03;;;8.70;99.90;;;;;;4972046;28;20200;-79
2022/04/08 12:06:06;;;;;;;5.70;5.30;;;8.80;99.90;;;;;;4979895;28;20668;-78
2022/04/08 12:08:35;;;;;;;7.57;7.07;;;8.90;99.90;;;;;;4982238;28;20203;-79
2022/04/08 12:11:08;;;;;;;8.20;7.70;;;8.80;99.90;;;;;;4979868;28;20301;-78
2022/04/08 12:13:36;;;;;;;4.70;4.33;;;8.80;99.90;;;;;;4983183;28;20201;-78
2022/04/08 12:16:08;;;;;;;5.20;4.80;;;8.70;99.90;;;;;;4985487;28;20215;-79
2022/04/08 12:18:35;;;;;;;4.07;3.67;;;8.70;99.90;;;;;;4977129;28;20244;-79
2022/04/08 12:21:05;;;;;;;3.30;3.10;;;8.70;99.90;;;;;;4987704;28;20260;-79
2022/04/08 12:23:34;;;;;;;5.53;3.30;;;8.80;99.90;;;;;;4987226;28;20594;-78
2022/04/08 12:26:04;;;;;;;5.60;5.20;;;8.90;99.90;;;;;;5011248;28;20347;-79
2022/04/08 12:28:35;;;;;;;7.60;7.10;;;8.80;99.90;;;;;;5003402;28;20208;-79
2022/04/08 12:31:11;;;;;;;8.60;7.90;;;8.70;99.90;;;;;;4980211;28;20209;-78
2022/04/08 12:33:38;;;;;;;7.37;6.87;;;8.70;99.90;;;;;;4975755;28;20205;-79
2022/04/08 12:36:09;;;;;;;6.53;6.03;;;8.60;99.90;;;;;;4983202;28;20264;-78
2022/04/08 12:38:38;;;;;;;8.57;7.97;;;8.40;99.90;;;;;;4997560;28;20203;-78
2022/04/08 12:41:06;;;;;;;7.50;7.00;;;8.40;99.90;;;;;;5001020;28;20208;-78
2022/04/08 12:43:33;;;;;;;6.87;6.37;;;8.20;99.90;;;;;;4999927;28;20205;-79
2022/04/08 12:46:00;;;;;;;8.27;7.70;;;8.20;99.90;;;;;;4983131;28;20292;-78
2022/04/08 12:48:28;;;;;;;10.27;9.67;;;8.20;99.90;;;;;;4983996;28;20200;-78
2022/04/08 12:50:55;;;;;;;11.77;10.90;;;8.20;99.90;;;;;;4982877;28;20202;-79
2022/04/08 12:53:22;;;;;;;11.40;10.53;;;8.20;99.90;;;;;;4993027;28;20202;-78
2022/04/08 12:55:51;;;;;;;10.70;10.10;;;8.20;99.90;;;;;;4975683;28;20302;-79
2022/04/08 12:58:18;;;;;;;11.07;10.00;;;8.20;99.90;;;;;;4991223;28;20208;-78
2022/04/08 13:00:46;;;;;;;10.00;9.40;;;8.20;99.90;;;;;;4982713;28;20308;-79